createdAt,value
2022-12-05T00:01:17.609Z,99925.72
2022-12-05T00:03:46.163Z,99924.34
2022-12-05T00:06:13.845Z,99923.69
2022-12-05T00:08:42.885Z,99926.88
2022-12-05T00:11:14.359Z,99924.59
2022-12-05T00:13:42.604Z,99928.31
2022-12-05T00:16:12.620Z,99923.66
2022-12-05T00:18:40.887Z,99927.16
2022-12-05T00:21:13.464Z,99928.97
2022-12-05T00:23:42.643Z,99925.06
2022-12-05T00:26:11.641Z,99930.03
2022-12-05T00:28:40.317Z,99940.31
2022-12-05T00:31:09.859Z,99941.69
2022-12-05T00:33:37.855Z,99947.09
2022-12-05T00:36:08.004Z,99949.56
2022-12-05T00:38:36.381Z,99956.28
2022-12-05T00:41:06.048Z,99952.34
2022-12-05T00:43:33.979Z,99943.44
2022-12-05T00:46:03.565Z,99955.25
2022-12-05T00:48:31.670Z,99962.16
2022-12-05T00:51:02.980Z,99961.00
2022-12-05T00:53:30.817Z,99964.94
2022-12-05T00:56:02.346Z,99967.06
2022-12-05T00:58:31.708Z,99964.94
2022-12-05T01:01:05.854Z,99971.31
2022-12-05T01:03:33.525Z,99984.78
2022-12-05T01:06:01.337Z,99974.53
2022-12-05T01:08:30.348Z,99976.00
2022-12-05T01:10:59.241Z,99978.72
2022-12-05T01:13:27.765Z,99989.47
2022-12-05T01:15:56.705Z,99993.94
2022-12-05T01:18:25.693Z,99987.72
2022-12-05T01:20:54.719Z,99995.53
2022-12-05T01:23:22.801Z,99989.94
2022-12-05T01:25:52.573Z,99998.56
2022-12-05T01:28:20.204Z,99998.94
2022-12-05T01:30:49.429Z,99995.75
2022-12-05T01:33:18.884Z,99985.63
2022-12-05T01:35:46.509Z,99995.28
2022-12-05T01:38:14.234Z,99992.25
2022-12-05T01:40:42.389Z,99995.16
2022-12-05T01:43:15.535Z,100007.81
2022-12-05T01:45:44.712Z,100002.41
2022-12-05T01:48:17.558Z,99996.81
2022-12-05T01:50:48.496Z,100006.38
2022-12-05T01:53:17.130Z,100005.44
2022-12-05T01:55:46.419Z,100002.66
2022-12-05T01:58:14.606Z,100008.38
2022-12-05T02:00:42.651Z,100006.41
2022-12-05T02:03:15.890Z,100005.50
2022-12-05T02:05:43.758Z,100006.25
2022-12-05T02:08:13.025Z,100007.56
2022-12-05T02:10:44.108Z,100003.19
2022-12-05T02:13:28.247Z,100011.00
2022-12-05T02:16:03.126Z,100008.09
2022-12-05T02:18:49.861Z,100008.69
2022-12-05T02:21:39.126Z,100014.22
2022-12-05T02:24:45.077Z,100005.31
2022-12-05T02:27:29.835Z,100016.44
2022-12-05T02:30:10.842Z,100021.59
2022-12-05T02:32:57.954Z,100012.63
2022-12-05T02:35:38.592Z,100017.72
2022-12-05T02:38:17.000Z,100027.56
2022-12-05T02:40:52.679Z,100024.16
2022-12-05T02:43:24.446Z,100017.34
2022-12-05T02:45:58.575Z,100016.06
2022-12-05T02:48:28.984Z,100021.50
2022-12-05T02:51:00.427Z,100009.91
2022-12-05T02:53:30.302Z,100004.38
2022-12-05T02:55:58.962Z,100014.84
2022-12-05T02:58:34.911Z,100010.00
2022-12-05T03:01:04.801Z,100006.56
2022-12-05T03:03:34.331Z,100003.84
2022-12-05T03:06:05.923Z,100007.72
2022-12-05T03:08:38.030Z,100016.41
2022-12-05T03:11:06.363Z,100010.53
2022-12-05T03:13:41.292Z,100014.69
2022-12-05T03:16:15.060Z,100017.66
2022-12-05T03:18:48.154Z,100022.47
2022-12-05T03:21:23.357Z,100018.88
2022-12-05T03:23:54.913Z,100027.25
2022-12-05T03:26:35.162Z,100028.00
2022-12-05T03:29:18.985Z,100024.00
2022-12-05T03:31:56.473Z,100031.56
2022-12-05T03:34:34.846Z,100032.25
2022-12-05T03:37:08.091Z,100035.91
2022-12-05T03:39:40.102Z,100040.97
2022-12-05T03:42:13.335Z,100052.31
2022-12-05T03:44:48.606Z,100050.75
2022-12-05T03:47:22.076Z,100049.44
2022-12-05T03:49:53.778Z,100045.28
2022-12-05T03:52:25.329Z,100054.41
2022-12-05T03:54:56.988Z,100058.97
2022-12-05T03:57:28.694Z,100064.94
2022-12-05T04:00:00.403Z,100068.66
2022-12-05T04:02:34.548Z,100068.81
2022-12-05T04:05:07.935Z,100060.47
2022-12-05T04:07:39.418Z,100064.94
2022-12-05T04:10:11.106Z,100064.75
2022-12-05T04:12:42.765Z,100060.78
2022-12-05T04:15:15.835Z,100064.69
2022-12-05T04:17:53.804Z,100064.09
2022-12-05T04:20:45.524Z,100060.09
2022-12-05T04:23:13.363Z,100067.44
2022-12-05T04:25:53.518Z,100071.25
2022-12-05T04:28:30.726Z,100076.78
2022-12-05T04:31:04.674Z,100073.22
2022-12-05T04:33:41.447Z,100069.41
2022-12-05T04:36:13.378Z,100069.31
2022-12-05T04:38:48.883Z,100072.28
2022-12-05T04:41:21.958Z,100071.91
2022-12-05T04:43:51.414Z,100075.13
2022-12-05T04:46:21.966Z,100079.44
2022-12-05T04:48:56.014Z,100075.31
2022-12-05T04:51:27.217Z,100079.53
2022-12-05T04:53:58.270Z,100081.25
2022-12-05T04:56:30.053Z,100087.56
2022-12-05T04:58:58.201Z,100092.16
2022-12-05T05:01:32.709Z,100086.19
2022-12-05T05:04:07.937Z,100088.75
2022-12-05T05:06:38.184Z,100094.06
2022-12-05T05:09:06.003Z,100091.41
2022-12-05T05:11:35.577Z,100089.38
2022-12-05T05:14:03.858Z,100089.31
2022-12-05T05:16:33.674Z,100100.44
2022-12-05T05:19:03.193Z,100104.31
2022-12-05T05:21:33.370Z,100096.91
2022-12-05T05:24:01.127Z,100103.72
2022-12-05T05:26:30.615Z,100106.44
2022-12-05T05:28:59.082Z,100100.06
2022-12-05T05:31:26.954Z,100102.34
2022-12-05T05:33:55.847Z,100110.13
2022-12-05T05:36:28.058Z,100107.97
2022-12-05T05:38:57.736Z,100110.97
2022-12-05T05:41:27.137Z,100112.75
2022-12-05T05:43:55.753Z,100107.63
2022-12-05T05:46:26.187Z,100124.88
2022-12-05T05:48:53.881Z,100109.78
2022-12-05T05:51:25.642Z,100116.50
2022-12-05T05:53:53.233Z,100106.06
2022-12-05T05:56:22.269Z,100105.22
2022-12-05T05:58:56.392Z,100113.88
2022-12-05T06:01:24.262Z,100109.78
2022-12-05T06:03:52.060Z,100101.34
2022-12-05T06:06:21.198Z,100097.69
2022-12-05T06:08:50.250Z,100097.94
2022-12-05T06:11:25.434Z,100100.00
2022-12-05T06:13:55.312Z,100100.19
2022-12-05T06:16:23.245Z,100107.31
2022-12-05T06:18:51.046Z,100111.69
2022-12-05T06:21:18.714Z,100113.03
2022-12-05T06:23:46.814Z,100113.38
2022-12-05T06:26:20.335Z,100115.13
2022-12-05T06:28:48.274Z,100113.47
2022-12-05T06:31:17.461Z,100117.34
2022-12-05T06:33:45.696Z,100129.47
2022-12-05T06:36:15.872Z,100131.38
2022-12-05T06:38:43.934Z,100126.88
2022-12-05T06:41:14.848Z,100130.88
2022-12-05T06:43:44.209Z,100130.69
2022-12-05T06:46:14.097Z,100135.13
2022-12-05T06:48:41.771Z,100146.38
2022-12-05T06:51:11.183Z,100150.59
2022-12-05T06:53:39.317Z,100153.50
2022-12-05T06:56:12.438Z,100152.63
2022-12-05T06:58:40.192Z,100146.28
2022-12-05T07:01:30.905Z,100150.28
2022-12-05T07:03:59.017Z,100145.69
2022-12-05T07:06:27.513Z,100150.78
2022-12-05T07:08:55.863Z,100162.31
2022-12-05T07:11:23.469Z,100167.53
2022-12-05T07:13:51.143Z,100170.13
2022-12-05T07:16:20.109Z,100169.44
2022-12-05T07:18:47.748Z,100166.16
2022-12-05T07:21:16.921Z,100180.81
2022-12-05T07:23:46.564Z,100179.63
2022-12-05T07:26:16.016Z,100179.63
2022-12-05T07:28:43.619Z,100184.28
2022-12-05T07:31:15.088Z,100177.72
2022-12-05T07:33:44.145Z,100185.69
2022-12-05T07:36:13.718Z,100186.19
2022-12-05T07:38:42.553Z,100187.31
2022-12-05T07:41:13.640Z,100193.50
2022-12-05T07:43:41.771Z,100196.97
2022-12-05T07:46:11.779Z,100205.69
2022-12-05T07:48:40.388Z,100200.97
2022-12-05T07:51:10.769Z,100213.81
2022-12-05T07:53:39.274Z,100207.69
2022-12-05T07:56:08.880Z,100208.50
2022-12-05T07:58:36.919Z,100209.34
2022-12-05T08:01:08.734Z,100212.81
2022-12-05T08:03:37.310Z,100215.25
2022-12-05T08:06:06.235Z,100220.94
2022-12-05T08:08:35.378Z,100225.19
2022-12-05T08:11:07.554Z,100226.47
2022-12-05T08:13:35.794Z,100224.88
2022-12-05T08:16:04.260Z,100224.47
2022-12-05T08:18:32.358Z,100222.94
2022-12-05T08:21:03.242Z,100227.16
2022-12-05T08:23:31.859Z,100227.88
2022-12-05T08:26:04.172Z,100228.09
2022-12-05T08:28:32.602Z,100231.53
2022-12-05T08:31:05.397Z,100230.25
2022-12-05T08:33:33.121Z,100233.63
2022-12-05T08:36:04.914Z,100241.97
2022-12-05T08:38:35.062Z,100246.06
2022-12-05T08:41:05.855Z,100254.06
2022-12-05T08:43:34.180Z,100249.69
2022-12-05T08:46:02.800Z,100254.78
2022-12-05T08:48:32.410Z,100265.19
2022-12-05T08:51:00.927Z,100267.56
2022-12-05T08:53:28.530Z,100278.94
2022-12-05T08:55:56.063Z,100268.00
2022-12-05T08:58:24.988Z,100277.56
2022-12-05T09:00:53.331Z,100274.81
2022-12-05T09:03:20.957Z,100274.75
2022-12-05T09:05:54.552Z,100278.09
2022-12-05T09:08:22.510Z,100267.69
2022-12-05T09:10:50.429Z,100276.25
2022-12-05T09:13:18.088Z,100280.44
2022-12-05T09:15:47.098Z,100289.75
2022-12-05T09:18:15.207Z,100295.53
2022-12-05T09:20:42.831Z,100287.03
2022-12-05T09:23:15.750Z,100291.81
2022-12-05T09:25:43.737Z,100284.06
2022-12-05T09:28:11.317Z,100289.47
2022-12-05T09:30:38.986Z,100300.03
2022-12-05T09:33:08.013Z,100300.47
2022-12-05T09:35:39.984Z,100310.69
2022-12-05T09:38:07.588Z,100298.88
2022-12-05T09:40:35.201Z,100303.03
2022-12-05T09:43:07.721Z,100301.09
2022-12-05T09:45:39.558Z,100300.25
2022-12-05T09:48:13.327Z,100300.56
2022-12-05T09:50:45.682Z,100298.53
2022-12-05T09:53:25.394Z,100297.53
2022-12-05T09:55:55.912Z,100297.00
2022-12-05T09:58:42.916Z,100302.44
2022-12-05T10:01:24.124Z,100297.84
2022-12-05T10:04:06.823Z,100295.06
2022-12-05T10:06:41.528Z,100296.91
2022-12-05T10:09:24.827Z,100296.34
2022-12-05T10:11:59.616Z,100290.63
2022-12-05T10:14:35.716Z,100301.22
2022-12-05T10:17:10.397Z,100294.78
2022-12-05T10:19:43.798Z,100293.78
2022-12-05T10:22:20.424Z,100293.78
2022-12-05T10:24:52.787Z,100288.28
2022-12-05T10:27:23.043Z,100290.56
2022-12-05T10:29:59.022Z,100280.34
2022-12-05T10:32:32.764Z,100272.25
2022-12-05T10:35:15.046Z,100279.44
2022-12-05T10:37:47.275Z,100281.78
2022-12-05T10:40:15.581Z,100276.06
2022-12-05T10:42:44.259Z,100284.91
2022-12-05T10:45:17.144Z,100284.63
2022-12-05T10:47:45.024Z,100279.50
2022-12-05T10:50:24.019Z,100273.75
2022-12-05T10:52:53.637Z,100268.13
2022-12-05T10:55:21.485Z,100269.00
2022-12-05T10:57:52.840Z,100258.94
2022-12-05T11:00:31.516Z,100266.34
2022-12-05T11:03:00.395Z,100257.44
2022-12-05T11:05:35.159Z,100253.88
2022-12-05T11:08:02.885Z,100258.09
2022-12-05T11:10:34.721Z,100258.31
2022-12-05T11:13:14.742Z,100256.03
2022-12-05T11:15:48.460Z,100256.69
2022-12-05T11:18:29.405Z,100253.19
2022-12-05T11:21:10.451Z,100266.88
2022-12-05T11:23:38.067Z,100267.19
2022-12-05T11:26:15.785Z,100264.66
2022-12-05T11:28:43.411Z,100267.47
2022-12-05T11:31:23.399Z,100268.63
2022-12-05T11:34:02.779Z,100270.63
2022-12-05T11:36:40.603Z,100276.28
2022-12-05T11:39:11.581Z,100273.56
2022-12-05T11:41:55.106Z,100277.16
2022-12-05T11:44:37.039Z,100276.81
2022-12-05T11:47:15.482Z,100272.72
2022-12-05T11:50:02.712Z,100273.84
2022-12-05T11:52:44.052Z,100269.09
2022-12-05T11:55:17.734Z,100277.91
2022-12-05T11:58:15.566Z,100274.25
2022-12-05T12:00:57.625Z,100274.94
2022-12-05T12:03:55.291Z,100265.94
2022-12-05T12:06:30.455Z,100270.78
2022-12-05T12:09:19.535Z,100273.75
2022-12-05T12:11:54.741Z,100266.75
2022-12-05T12:14:31.863Z,100264.88
2022-12-05T12:17:09.758Z,100274.53
2022-12-05T12:20:03.455Z,100267.56
2022-12-05T12:22:49.385Z,100268.09
2022-12-05T12:25:28.904Z,100269.38
2022-12-05T12:28:07.974Z,100269.00
2022-12-05T12:30:47.908Z,100260.19
2022-12-05T12:33:27.210Z,100266.63
2022-12-05T12:36:04.536Z,100267.44
2022-12-05T12:38:52.336Z,100265.22
2022-12-05T12:41:36.058Z,100266.81
2022-12-05T12:44:15.269Z,100272.72
2022-12-05T12:46:51.361Z,100270.63
2022-12-05T12:49:37.044Z,100268.13
2022-12-05T12:52:12.320Z,100259.44
2022-12-05T12:55:05.069Z,100269.47
2022-12-05T12:57:47.665Z,100266.19
2022-12-05T13:00:24.883Z,100260.41
2022-12-05T13:03:00.286Z,100260.53
2022-12-05T13:05:33.999Z,100256.53
2022-12-05T13:08:07.820Z,100266.63
2022-12-05T13:10:40.597Z,100273.09
2022-12-05T13:13:14.501Z,100270.97
2022-12-05T13:15:47.737Z,100274.25
2022-12-05T13:18:18.033Z,100268.38
2022-12-05T13:20:48.938Z,100274.09
2022-12-05T13:23:19.577Z,100270.31
2022-12-05T13:25:48.752Z,100265.50
2022-12-05T13:28:28.633Z,100271.28
2022-12-05T13:31:01.802Z,100263.81
2022-12-05T13:33:33.583Z,100276.94
2022-12-05T13:36:26.801Z,100263.41
2022-12-05T13:39:17.474Z,100264.59
2022-12-05T13:42:04.770Z,100273.50
2022-12-05T13:44:39.115Z,100268.00
2022-12-05T13:47:17.041Z,100271.59
2022-12-05T13:49:50.480Z,100278.56
2022-12-05T13:52:23.244Z,100273.94
2022-12-05T13:54:59.416Z,100277.75
2022-12-05T13:57:47.432Z,100267.63
2022-12-05T14:00:26.181Z,100268.19
2022-12-05T14:02:56.403Z,100268.84
2022-12-05T14:05:41.575Z,100278.16
2022-12-05T14:08:45.993Z,100273.25
2022-12-05T14:11:13.813Z,100273.94
2022-12-05T14:13:44.931Z,100270.41
2022-12-05T14:16:43.942Z,100270.66
2022-12-05T14:19:37.831Z,100276.31
2022-12-05T14:22:24.338Z,100281.16
2022-12-05T14:25:01.411Z,100281.81
2022-12-05T14:27:50.449Z,100281.78
2022-12-05T14:30:24.821Z,100288.63
2022-12-05T14:32:55.207Z,100287.25
2022-12-05T14:35:29.858Z,100287.19
2022-12-05T14:37:59.788Z,100280.72
2022-12-05T14:40:32.686Z,100286.94
2022-12-05T14:43:05.684Z,100283.03
2022-12-05T14:45:37.022Z,100295.59
2022-12-05T14:48:07.327Z,100291.84
2022-12-05T14:50:43.407Z,100297.53
2022-12-05T14:53:37.453Z,100288.91
2022-12-05T14:56:13.957Z,100279.94
2022-12-05T14:58:48.200Z,100293.63
2022-12-05T15:01:19.811Z,100278.09
2022-12-05T15:04:10.208Z,100286.97
2022-12-05T15:06:47.875Z,100287.47
2022-12-05T15:09:38.754Z,100288.13
2022-12-05T15:12:12.343Z,100284.25
2022-12-05T15:14:47.946Z,100281.28
2022-12-05T15:17:18.986Z,100291.22
2022-12-05T15:19:52.426Z,100277.38
2022-12-05T15:22:26.549Z,100292.78
2022-12-05T15:24:54.197Z,100284.91
2022-12-05T15:27:22.119Z,100289.59
2022-12-05T15:29:54.153Z,100289.13
2022-12-05T15:32:26.676Z,100287.00
2022-12-05T15:35:01.006Z,100292.22
2022-12-05T15:37:35.546Z,100281.22
2022-12-05T15:40:04.945Z,100287.75
2022-12-05T15:42:37.792Z,100284.94
2022-12-05T15:45:23.826Z,100285.25
2022-12-05T15:47:54.943Z,100286.88
2022-12-05T15:50:27.892Z,100286.47
2022-12-05T15:53:00.225Z,100287.81
2022-12-05T15:55:32.123Z,100283.72
2022-12-05T15:58:12.620Z,100289.47
2022-12-05T16:00:43.500Z,100295.63
2022-12-05T16:03:15.064Z,100291.41
2022-12-05T16:05:50.305Z,100300.94
2022-12-05T16:08:21.744Z,100300.28
2022-12-05T16:10:49.877Z,100294.06
2022-12-05T16:13:20.655Z,100303.91
2022-12-05T16:15:52.947Z,100303.06
2022-12-05T16:18:27.960Z,100300.28
2022-12-05T16:20:56.365Z,100302.59
2022-12-05T16:23:28.421Z,100308.47
2022-12-05T16:26:11.620Z,100305.34
2022-12-05T16:28:39.609Z,100302.25
2022-12-05T16:31:08.123Z,100308.06
2022-12-05T16:33:41.809Z,100305.31
2022-12-05T16:36:13.059Z,100307.94
2022-12-05T16:38:45.083Z,100306.78
2022-12-05T16:41:14.909Z,100305.94
2022-12-05T16:43:45.054Z,100308.94
2022-12-05T16:46:46.849Z,100302.41
2022-12-05T16:49:20.398Z,100312.19
2022-12-05T16:51:55.748Z,100304.91
2022-12-05T16:54:24.670Z,100307.44
2022-12-05T16:56:52.572Z,100307.56
2022-12-05T16:59:24.316Z,100305.44
2022-12-05T17:01:52.151Z,100310.06
2022-12-05T17:04:19.845Z,100312.88
2022-12-05T17:06:47.460Z,100310.25
2022-12-05T17:09:15.096Z,100310.59
2022-12-05T17:11:46.331Z,100321.19
2022-12-05T17:14:16.167Z,100317.22
2022-12-05T17:16:44.245Z,100320.16
2022-12-05T17:19:12.383Z,100321.63
2022-12-05T17:21:42.967Z,100326.44
2022-12-05T17:24:15.798Z,100325.34
2022-12-05T17:26:45.072Z,100320.16
2022-12-05T17:29:13.172Z,100325.19
2022-12-05T17:31:40.865Z,100321.78
2022-12-05T17:34:16.674Z,100334.31
2022-12-05T17:36:44.736Z,100322.03
2022-12-05T17:39:12.311Z,100328.88
2022-12-05T17:41:40.131Z,100331.75
2022-12-05T17:44:13.758Z,100327.06
2022-12-05T17:46:42.954Z,100331.06
2022-12-05T17:49:13.823Z,100331.44
2022-12-05T17:51:58.868Z,100328.25
2022-12-05T17:54:29.369Z,100330.91
2022-12-05T17:56:57.181Z,100331.81
2022-12-05T17:59:26.091Z,100337.97
2022-12-05T18:01:53.739Z,100336.97
2022-12-05T18:04:23.517Z,100337.06
2022-12-05T18:06:51.534Z,100335.69
2022-12-05T18:09:19.681Z,100331.84
2022-12-05T18:11:47.296Z,100340.84
2022-12-05T18:14:14.901Z,100335.69
2022-12-05T18:16:44.030Z,100339.50
2022-12-05T18:19:11.703Z,100336.44
2022-12-05T18:21:39.433Z,100340.59
2022-12-05T18:24:07.404Z,100345.53
2022-12-05T18:26:34.992Z,100336.75
2022-12-05T18:29:02.692Z,100341.66
2022-12-05T18:31:30.879Z,100334.31
2022-12-05T18:33:59.917Z,100333.72
2022-12-05T18:36:27.664Z,100334.31
2022-12-05T18:38:56.733Z,100341.16
2022-12-05T18:41:26.529Z,100339.88
2022-12-05T18:43:54.764Z,100340.69
2022-12-05T18:46:22.532Z,100337.34
2022-12-05T18:48:50.284Z,100335.25
2022-12-05T18:51:21.675Z,100337.91
2022-12-05T18:53:53.035Z,100334.88
2022-12-05T18:56:24.337Z,100338.69
2022-12-05T18:58:57.476Z,100332.38
2022-12-05T19:01:26.217Z,100341.50
2022-12-05T19:03:54.329Z,100339.69
2022-12-05T19:06:25.857Z,100339.00
2022-12-05T19:08:55.481Z,100338.53
2022-12-05T19:11:24.142Z,100342.63
2022-12-05T19:13:58.524Z,100337.34
2022-12-05T19:16:28.413Z,100331.00
2022-12-05T19:18:57.959Z,100329.94
2022-12-05T19:21:29.528Z,100333.88
2022-12-05T19:23:58.435Z,100339.38
2022-12-05T19:26:26.962Z,100332.69
2022-12-05T19:28:54.914Z,100336.19
2022-12-05T19:31:24.768Z,100337.00
2022-12-05T19:33:54.226Z,100337.81
2022-12-05T19:36:23.682Z,100338.84
2022-12-05T19:38:55.542Z,100338.38
2022-12-05T19:41:25.952Z,100336.06
2022-12-05T19:43:54.548Z,100347.91
2022-12-05T19:46:24.997Z,100343.91
2022-12-05T19:48:54.186Z,100351.06
2022-12-05T19:51:22.153Z,100355.47
2022-12-05T19:53:49.965Z,100358.31
2022-12-05T19:56:22.064Z,100349.03
2022-12-05T19:58:50.658Z,100349.38
2022-12-05T20:01:21.013Z,100358.97
2022-12-05T20:03:51.106Z,100353.47
2022-12-05T20:06:20.098Z,100357.03
2022-12-05T20:08:48.688Z,100354.81
2022-12-05T20:11:18.349Z,100351.34
2022-12-05T20:13:48.101Z,100356.16
2022-12-05T20:16:19.610Z,100355.69
2022-12-05T20:18:47.447Z,100349.34
2022-12-05T20:21:17.092Z,100353.44
2022-12-05T20:23:44.963Z,100350.94
2022-12-05T20:26:14.646Z,100351.63
2022-12-05T20:28:42.884Z,100355.44
2022-12-05T20:31:13.501Z,100362.41
2022-12-05T20:33:41.466Z,100359.41
2022-12-05T20:36:11.182Z,100361.28
2022-12-05T20:38:39.211Z,100359.81
2022-12-05T20:41:08.765Z,100355.31
2022-12-05T20:43:36.689Z,100366.63
2022-12-05T20:46:05.462Z,100363.75
2022-12-05T20:48:36.600Z,100365.81
2022-12-05T20:51:05.676Z,100361.03
2022-12-05T20:53:35.383Z,100360.66
2022-12-05T20:56:04.869Z,100361.97
2022-12-05T20:58:32.802Z,100362.78
2022-12-05T21:01:00.828Z,100362.00
2022-12-05T21:03:28.772Z,100360.31
2022-12-05T21:05:57.909Z,100350.69
2022-12-05T21:08:26.230Z,100346.00
2022-12-05T21:10:54.218Z,100350.06
2022-12-05T21:13:21.822Z,100346.44
2022-12-05T21:15:49.538Z,100351.63
2022-12-05T21:18:17.117Z,100346.16
2022-12-05T21:20:44.765Z,100357.47
2022-12-05T21:23:13.829Z,100357.19
2022-12-05T21:25:41.877Z,100357.59
2022-12-05T21:28:09.380Z,100351.88
2022-12-05T21:30:37.155Z,100357.53
2022-12-05T21:33:05.881Z,100350.00
2022-12-05T21:35:33.428Z,100347.34
2022-12-05T21:38:01.608Z,100354.00
2022-12-05T21:40:30.651Z,100354.81
2022-12-05T21:42:58.296Z,100352.97
2022-12-05T21:45:25.836Z,100355.19
2022-12-05T21:47:53.758Z,100358.00
2022-12-05T21:50:21.465Z,100345.94
2022-12-05T21:52:49.046Z,100350.50
2022-12-05T21:55:16.765Z,100349.28
2022-12-05T21:57:45.777Z,100343.59
2022-12-05T22:00:14.276Z,100351.31
2022-12-05T22:02:41.908Z,100350.47
2022-12-05T22:05:10.555Z,100357.09
2022-12-05T22:07:38.292Z,100358.50
2022-12-05T22:10:07.627Z,100353.34
2022-12-05T22:12:35.679Z,100346.66
2022-12-05T22:15:05.815Z,100346.47
2022-12-05T22:17:33.494Z,100345.72
2022-12-05T22:20:01.459Z,100351.28
2022-12-05T22:22:29.325Z,100349.34
2022-12-05T22:24:57.107Z,100350.00
2022-12-05T22:27:24.922Z,100347.50
2022-12-05T22:29:53.048Z,100343.22
2022-12-05T22:32:21.994Z,100342.72
2022-12-05T22:34:52.798Z,100346.56
2022-12-05T22:37:20.431Z,100350.59
2022-12-05T22:39:48.036Z,100356.25
2022-12-05T22:42:15.659Z,100348.84
2022-12-05T22:44:44.716Z,100341.69
2022-12-05T22:47:12.414Z,100339.84
2022-12-05T22:49:41.447Z,100339.63
2022-12-05T22:52:09.007Z,100341.97
2022-12-05T22:54:36.683Z,100344.47
2022-12-05T22:57:04.500Z,100344.34
2022-12-05T22:59:32.182Z,100338.97
2022-12-05T23:01:59.945Z,100332.53
2022-12-05T23:04:27.664Z,100332.53
2022-12-05T23:06:56.840Z,100327.06
2022-12-05T23:09:24.897Z,100329.03
2022-12-05T23:11:52.558Z,100329.88
2022-12-05T23:14:20.520Z,100323.81
2022-12-05T23:16:48.826Z,100329.50
2022-12-05T23:19:16.594Z,100324.00
2022-12-05T23:21:44.276Z,100319.28
2022-12-05T23:24:14.005Z,100317.84
2022-12-05T23:26:43.865Z,100313.16
2022-12-05T23:29:13.084Z,100320.91
2022-12-05T23:31:40.899Z,100323.22
2022-12-05T23:34:08.998Z,100319.06
2022-12-05T23:36:36.826Z,100317.72
2022-12-05T23:39:05.065Z,100313.50
2022-12-05T23:41:34.438Z,100314.13
2022-12-05T23:44:02.551Z,100318.50
2022-12-05T23:46:30.626Z,100322.31
2022-12-05T23:48:58.452Z,100317.69
2022-12-05T23:51:28.512Z,100315.78
2022-12-05T23:53:57.874Z,100316.94
2022-12-05T23:56:27.087Z,100319.94
2022-12-05T23:58:57.300Z,100315.69
